createdAt,value
2023-03-22T00:22:42.304Z,6.13
2023-03-22T00:27:34.013Z,5.73
2023-03-22T00:32:25.912Z,5.50
2023-03-22T00:37:21.861Z,5.57
2023-03-22T00:42:13.589Z,6.77
2023-03-22T00:47:05.339Z,6.43
2023-03-22T00:51:57.118Z,7.93
2023-03-22T00:56:49.783Z,7.73
2023-03-22T01:01:41.752Z,6.87
2023-03-22T01:06:34.697Z,7.03
2023-03-22T01:11:27.308Z,6.83
2023-03-22T01:16:19.018Z,6.97
2023-03-22T01:21:11.188Z,7.13
2023-03-22T01:26:03.653Z,7.47
2023-03-22T01:30:56.316Z,6.90
2023-03-22T01:35:48.402Z,7.40
2023-03-22T01:40:40.746Z,6.57
2023-03-22T01:45:49.883Z,6.77
2023-03-22T01:50:50.750Z,6.27
2023-03-22T01:55:42.784Z,5.83
2023-03-22T02:00:34.599Z,6.17
2023-03-22T02:05:27.458Z,6.47
2023-03-22T02:10:24.606Z,7.10
2023-03-22T02:15:34.054Z,7.67
2023-03-22T02:20:53.458Z,7.87
2023-03-22T02:26:49.812Z,9.57
2023-03-22T02:32:18.961Z,8.67
2023-03-22T02:37:42.380Z,9.17
2023-03-22T02:42:56.368Z,9.67
2023-03-22T02:48:14.454Z,10.60
2023-03-22T02:53:38.154Z,11.97
2023-03-22T02:58:39.600Z,13.00
2023-03-22T03:03:37.507Z,11.97
2023-03-22T03:08:30.578Z,11.97
2023-03-22T03:13:22.817Z,13.23
2023-03-22T03:18:58.825Z,13.37
2023-03-22T03:24:06.865Z,13.00
2023-03-22T03:29:20.368Z,11.60
2023-03-22T03:34:35.994Z,12.97
2023-03-22T03:39:34.670Z,12.53
2023-03-22T03:44:28.565Z,10.43
2023-03-22T03:49:23.015Z,10.93
2023-03-22T03:54:14.721Z,10.40
2023-03-22T03:59:08.166Z,11.77
2023-03-22T04:03:59.877Z,10.60
2023-03-22T04:08:53.587Z,10.43
2023-03-22T04:13:45.504Z,10.07
2023-03-22T04:18:38.037Z,9.23
2023-03-22T04:23:29.748Z,9.30
2023-03-22T04:28:21.457Z,7.90
2023-03-22T04:33:13.136Z,7.67
2023-03-22T04:38:04.888Z,7.33
2023-03-22T04:42:57.513Z,6.77
2023-03-22T04:47:49.734Z,6.37
2023-03-22T05:02:58.152Z,6.13
2023-03-22T05:07:49.929Z,5.90
2023-03-22T05:12:41.591Z,6.03
2023-03-22T05:17:33.932Z,5.87
2023-03-22T05:22:25.600Z,6.33
2023-03-22T05:27:17.332Z,5.30
2023-03-22T05:32:09.799Z,5.37
2023-03-22T05:37:02.395Z,5.30
2023-03-22T05:41:54.114Z,4.93
2023-03-22T05:46:45.858Z,5.73
2023-03-22T05:51:41.442Z,7.07
2023-03-22T05:56:33.519Z,7.20
2023-03-22T06:01:25.363Z,5.07
2023-03-22T06:06:17.178Z,4.47
2023-03-22T06:11:09.389Z,5.10
2023-03-22T06:16:03.527Z,5.30
2023-03-22T06:20:55.271Z,5.30
2023-03-22T06:25:48.905Z,5.27
2023-03-22T06:30:41.471Z,5.00
2023-03-22T06:35:35.103Z,5.18
2023-03-22T06:40:27.375Z,4.90
2023-03-22T06:45:19.500Z,4.13
2023-03-22T06:50:11.938Z,4.20
2023-03-22T06:55:04.057Z,4.73
2023-03-22T06:59:55.811Z,4.17
2023-03-22T07:04:47.512Z,5.20
2023-03-22T07:09:41.506Z,5.07
2023-03-22T07:14:36.014Z,4.30
2023-03-22T07:19:27.904Z,4.53
2023-03-22T07:24:19.602Z,4.40
2023-03-22T07:29:11.298Z,4.37
2023-03-22T07:34:04.819Z,5.32
2023-03-22T07:38:58.544Z,4.70
2023-03-22T07:43:58.206Z,4.97
2023-03-22T07:48:51.884Z,4.33
2023-03-22T07:53:43.564Z,4.23
2023-03-22T07:58:42.890Z,4.03
2023-03-22T08:03:36.487Z,3.10
2023-03-22T08:08:28.166Z,3.73
2023-03-22T08:13:19.880Z,3.50
2023-03-22T08:18:11.648Z,3.40
2023-03-22T08:23:04.236Z,3.50
2023-03-22T08:33:02.392Z,3.50
2023-03-22T08:37:57.006Z,3.20
2023-03-22T08:42:54.307Z,3.97
2023-03-22T08:47:48.293Z,3.75
2023-03-22T08:52:40.268Z,3.72
2023-03-22T08:57:32.706Z,4.15
2023-03-22T09:02:25.467Z,3.83
2023-03-22T09:07:28.061Z,4.07
2023-03-22T09:12:20.310Z,4.40
2023-03-22T09:17:12.353Z,3.67
2023-03-22T09:22:04.092Z,3.85
2023-03-22T09:26:57.745Z,3.70
2023-03-22T09:31:49.543Z,3.65
2023-03-22T09:36:41.259Z,3.35
2023-03-22T09:41:50.842Z,3.85
2023-03-22T09:46:51.313Z,3.65
2023-03-22T09:57:12.580Z,3.72
2023-03-22T10:20:00.540Z,4.00
2023-03-22T11:06:32.968Z,3.97
2023-03-22T11:11:44.638Z,3.50
2023-03-22T11:17:09.835Z,3.58
2023-03-22T11:38:41.414Z,2.15
2023-03-22T11:43:52.694Z,2.15
2023-03-22T11:54:23.065Z,1.80
2023-03-22T12:04:40.163Z,1.67
2023-03-22T12:15:05.600Z,1.90
2023-03-22T12:20:25.668Z,1.70
2023-03-22T13:03:16.569Z,1.00
2023-03-22T13:08:08.934Z,1.15
2023-03-22T13:23:57.337Z,1.25
2023-03-22T13:29:12.809Z,1.10
2023-03-22T13:34:14.476Z,1.05
2023-03-22T13:39:14.211Z,1.17
2023-03-22T13:49:56.372Z,1.08
2023-03-22T13:54:52.602Z,1.20
2023-03-22T14:00:20.554Z,1.00
2023-03-22T14:05:23.476Z,1.20
2023-03-22T14:10:39.794Z,0.80
2023-03-22T14:15:38.652Z,0.70
